Main page
METAR-TAF:

METAR-TAF

Airports :

Seville Airport

Seville, Spain

latitude: 37-25N, longitude: 005-54W, elevation: 34 m

Current weather observation

The report was made 23 minutes ago, at 06:00 UTC
Wind 5 kt from the North/Northeast
Temperature 17°C
Humidity 94%
Pressure 1021 hPa
Visibility: 6000 m
patches of fog

METAR: LEZL 230600Z 03005KT 6000 BCFG NSC 17/16 Q1021 NOSIG

Time: 08:23 (06:23 UTC)

Forecast

The report was made 4 hours and 23 minutes ago, at 02:00 UTC
Forecast valid from 23 at 03 UTC to 24 at 03 UTC
Wind 4 kt from the North/Northeast
Visibility 10 km or more
Few clouds at a height of 3000 ft

TAF: LEZL 230200Z 2303/2403 03004KT 9999 FEW030 TX25/2315Z TN16/2306Z

Weather observations and forecasts of more than 4000 airports (METAR and TAF reports).

The available stations are represented by yellow and red dots on the map.

Hover mouse over dot to see the name of the station.

Then click to see weather observations and forecasts.

To change the map : click on the green buttons with a black cross to zoom in, on the green button with a dash to zoom out, or on the green arrows for adjacent maps.


METAR-TAF: